Terminal Aerodrome Forecast
Issued by NWS Cleveland, OH

Home | Current Version | Previous Version | Graphics & Text | Print | Product List | Glossary On
Versions: 1 2 3 4 5 6 7 8 9 10 11 12 13 14 15 16 17 18 19 20 21 22
000
FTUS41 KCLE 232200 AAA
TAFYNG
TAF AMD
KYNG 232217Z 2322/2418 14010KT P6SM OVC080
     FM240000 14010KT P6SM SCT015 OVC035
      TEMPO 2400/2403 5SM -SHRA BKN015
     FM240300 12015G25KT 2SM -SHRA OVC006
     FM240900 18018G28KT 5SM BR VCSH BKN018 OVC025=

USA.gov is the U.S. government's official web portal to all federal, state and local government web resources and services.